sensor_id;sensor_type;location;lat;lon;timestamp;pressure;altitude;pressure_sealevel;temperature;humidity
11712;BME280;5912;51.034;6.984;2023-04-06T08:22:00;56156.00;;;-142.13;27.92
11712;BME280;5912;51.034;6.984;2023-04-06T08:24:25;56192.06;;;-142.13;27.61
11712;BME280;5912;51.034;6.984;2023-04-06T08:26:51;56194.06;;;-142.13;27.92
11712;BME280;5912;51.034;6.984;2023-04-06T08:29:17;56172.03;;;-142.13;27.51
11712;BME280;5912;51.034;6.984;2023-04-06T08:31:42;56166.03;;;-142.13;27.54
11712;BME280;5912;51.034;6.984;2023-04-06T08:34:08;56148.00;;;-142.13;27.31
11712;BME280;5912;51.034;6.984;2023-04-06T08:36:33;56140.00;;;-142.13;26.91
11712;BME280;5912;51.034;6.984;2023-04-06T08:38:59;56188.06;;;-142.13;26.49
11712;BME280;5912;51.034;6.984;2023-04-06T08:41:25;56154.00;;;-142.13;26.92
11712;BME280;5912;51.034;6.984;2023-04-06T08:43:59;56140.00;;;-142.13;26.51
11712;BME280;5912;51.034;6.984;2023-04-06T08:46:25;56154.00;;;-142.13;26.90
11712;BME280;5912;51.034;6.984;2023-04-06T08:49:01;56117.97;;;-142.13;26.78
11712;BME280;5912;51.034;6.984;2023-04-06T08:51:28;56113.94;;;-142.13;26.40
11712;BME280;5912;51.034;6.984;2023-04-06T08:53:56;56117.97;;;-142.13;26.46
11712;BME280;5912;51.034;6.984;2023-04-06T08:56:24;56115.94;;;-142.13;26.78
11712;BME280;5912;51.034;6.984;2023-04-06T08:58:50;56113.94;;;-142.13;25.75
11712;BME280;5912;51.034;6.984;2023-04-06T09:01:20;56113.94;;;-142.13;26.40
11712;BME280;5912;51.034;6.984;2023-04-06T09:03:46;56152.00;;;-142.13;26.30
11712;BME280;5912;51.034;6.984;2023-04-06T09:06:13;56103.94;;;-142.13;26.09
11712;BME280;5912;51.034;6.984;2023-04-06T09:08:40;56105.94;;;-142.13;25.73
11712;BME280;5912;51.034;6.984;2023-04-06T09:11:06;56083.91;;;-142.13;25.64
11712;BME280;5912;51.034;6.984;2023-04-06T09:13:31;56035.81;;;-142.13;25.28
11712;BME280;5912;51.034;6.984;2023-04-06T09:16:05;56063.88;;;-142.13;25.17
11712;BME280;5912;51.034;6.984;2023-04-06T09:18:33;56099.94;;;-142.13;25.65
11712;BME280;5912;51.034;6.984;2023-04-06T09:21:02;56071.88;;;-142.13;25.58
11712;BME280;5912;51.034;6.984;2023-04-06T09:23:28;56083.91;;;-142.13;25.78
11712;BME280;5912;51.034;6.984;2023-04-06T09:31:15;56065.88;;;-142.13;25.03
11712;BME280;5912;51.034;6.984;2023-04-06T09:33:43;56067.88;;;-142.13;25.56
11712;BME280;5912;51.034;6.984;2023-04-06T09:36:09;56055.84;;;-142.13;24.83
11712;BME280;5912;51.034;6.984;2023-04-06T09:38:52;56055.84;;;-142.13;25.60
11712;BME280;5912;51.034;6.984;2023-04-06T09:41:23;56049.84;;;-142.13;24.96
11712;BME280;5912;51.034;6.984;2023-04-06T09:43:51;56073.88;;;-142.13;25.30
11712;BME280;5912;51.034;6.984;2023-04-06T09:46:17;56073.88;;;-142.13;25.82
11712;BME280;5912;51.034;6.984;2023-04-06T09:48:46;56055.84;;;-142.13;25.51
11712;BME280;5912;51.034;6.984;2023-04-06T09:51:13;56099.94;;;-142.13;25.63
11712;BME280;5912;51.034;6.984;2023-04-06T09:53:41;56075.88;;;-142.13;25.97
11712;BME280;5912;51.034;6.984;2023-04-06T09:56:11;56083.91;;;-142.13;26.07
11712;BME280;5912;51.034;6.984;2023-04-06T09:58:40;56073.88;;;-142.13;25.79
11712;BME280;5912;51.034;6.984;2023-04-06T10:01:14;56053.84;;;-142.13;25.39
11712;BME280;5912;51.034;6.984;2023-04-06T10:03:56;56033.81;;;-142.13;25.20
11712;BME280;5912;51.034;6.984;2023-04-06T10:06:27;56071.88;;;-142.13;25.32
11712;BME280;5912;51.034;6.984;2023-04-06T10:08:55;56059.88;;;-142.13;25.55
11712;BME280;5912;51.034;6.984;2023-04-06T10:11:22;56063.88;;;-142.13;25.60
11712;BME280;5912;51.034;6.984;2023-04-06T10:13:48;56083.91;;;-142.13;26.30
11712;BME280;5912;51.034;6.984;2023-04-06T10:16:14;56037.84;;;-142.13;25.49
11712;BME280;5912;51.034;6.984;2023-04-06T10:18:44;56083.91;;;-142.13;25.45
11712;BME280;5912;51.034;6.984;2023-04-06T10:21:13;56051.84;;;-142.13;25.19
11712;BME280;5912;51.034;6.984;2023-04-06T10:23:46;56073.88;;;-142.13;24.98
11712;BME280;5912;51.034;6.984;2023-04-06T10:26:14;56071.88;;;-142.13;25.66
11712;BME280;5912;51.034;6.984;2023-04-06T10:28:42;56083.91;;;-142.13;26.25
11712;BME280;5912;51.034;6.984;2023-04-06T10:31:08;56087.91;;;-142.13;26.44
11712;BME280;5912;51.034;6.984;2023-04-06T10:33:33;56091.91;;;-142.13;26.31
11712;BME280;5912;51.034;6.984;2023-04-06T10:36:21;56099.94;;;-142.13;26.66
11712;BME280;5912;51.034;6.984;2023-04-06T10:38:47;56085.91;;;-142.13;26.53
11712;BME280;5912;51.034;6.984;2023-04-06T10:41:12;56099.94;;;-142.13;26.55
11712;BME280;5912;51.034;6.984;2023-04-06T10:43:40;56081.91;;;-142.13;27.23
11712;BME280;5912;51.034;6.984;2023-04-06T10:46:07;56071.88;;;-142.13;27.10
11712;BME280;5912;51.034;6.984;2023-04-06T10:48:40;56063.88;;;-142.13;26.11
11712;BME280;5912;51.034;6.984;2023-04-06T10:51:13;56063.88;;;-142.13;25.48
11712;BME280;5912;51.034;6.984;2023-04-06T10:53:46;56085.91;;;-142.13;25.96
11712;BME280;5912;51.034;6.984;2023-04-06T10:56:14;56061.88;;;-142.13;26.45
11712;BME280;5912;51.034;6.984;2023-04-06T10:58:47;56077.91;;;-142.13;26.59
11712;BME280;5912;51.034;6.984;2023-04-06T11:01:17;56091.91;;;-142.13;26.29
11712;BME280;5912;51.034;6.984;2023-04-06T11:03:48;56059.88;;;-142.13;26.72
11712;BME280;5912;51.034;6.984;2023-04-06T11:06:27;56091.91;;;-142.13;26.41
11712;BME280;5912;51.034;6.984;2023-04-06T11:08:54;56079.91;;;-142.13;26.56
11712;BME280;5912;51.034;6.984;2023-04-06T11:11:21;56051.84;;;-142.13;26.17
11712;BME280;5912;51.034;6.984;2023-04-06T11:13:57;56067.88;;;-142.13;26.23
11712;BME280;5912;51.034;6.984;2023-04-06T11:16:25;56051.84;;;-142.13;25.80
11712;BME280;5912;51.034;6.984;2023-04-06T11:19:01;56103.94;;;-142.13;25.80
11712;BME280;5912;51.034;6.984;2023-04-06T11:21:36;56043.84;;;-142.13;26.15
11712;BME280;5912;51.034;6.984;2023-04-06T11:24:16;56071.88;;;-142.13;26.48
11712;BME280;5912;51.034;6.984;2023-04-06T11:29:16;56099.94;;;-142.13;25.92
11712;BME280;5912;51.034;6.984;2023-04-06T11:31:46;56107.94;;;-142.13;26.29
11712;BME280;5912;51.034;6.984;2023-04-06T11:34:38;56111.94;;;-142.13;26.78
11712;BME280;5912;51.034;6.984;2023-04-06T11:37:07;56067.88;;;-142.13;26.67
11712;BME280;5912;51.034;6.984;2023-04-06T11:39:38;56103.94;;;-142.13;26.94
11712;BME280;5912;51.034;6.984;2023-04-06T11:42:04;56099.94;;;-142.13;27.17
11712;BME280;5912;51.034;6.984;2023-04-06T11:44:44;56107.94;;;-142.13;27.27
11712;BME280;5912;51.034;6.984;2023-04-06T11:47:14;56105.94;;;-142.13;27.63
11712;BME280;5912;51.034;6.984;2023-04-06T11:49:42;56115.94;;;-142.13;27.42
11712;BME280;5912;51.034;6.984;2023-04-06T11:52:34;56135.97;;;-142.13;27.27
11712;BME280;5912;51.034;6.984;2023-04-06T11:55:10;56099.94;;;-142.13;27.45
11712;BME280;5912;51.034;6.984;2023-04-06T11:57:36;56115.94;;;-142.13;27.83
11712;BME280;5912;51.034;6.984;2023-04-06T12:00:01;56133.97;;;-142.13;26.90
11712;BME280;5912;51.034;6.984;2023-04-06T12:02:26;56152.00;;;-142.13;27.66
11712;BME280;5912;51.034;6.984;2023-04-06T12:04:52;56123.97;;;-142.13;27.68
11712;BME280;5912;51.034;6.984;2023-04-06T12:07:17;56113.94;;;-142.13;27.81
11712;BME280;5912;51.034;6.984;2023-04-06T12:09:42;56164.03;;;-142.13;27.62
11712;BME280;5912;51.034;6.984;2023-04-06T12:12:08;56121.97;;;-142.13;27.40
11712;BME280;5912;51.034;6.984;2023-04-06T12:14:33;56152.00;;;-142.13;27.72
11712;BME280;5912;51.034;6.984;2023-04-06T12:16:58;56131.97;;;-142.13;27.91
11712;BME280;5912;51.034;6.984;2023-04-06T12:19:24;56131.97;;;-142.13;27.31
11712;BME280;5912;51.034;6.984;2023-04-06T12:21:54;56154.00;;;-142.13;27.89
11712;BME280;5912;51.034;6.984;2023-04-06T12:24:19;56172.03;;;-142.13;27.73
11712;BME280;5912;51.034;6.984;2023-04-06T12:26:44;56131.97;;;-142.13;28.05
11712;BME280;5912;51.034;6.984;2023-04-06T12:29:10;56156.00;;;-142.13;28.23
11712;BME280;5912;51.034;6.984;2023-04-06T12:31:37;56135.97;;;-142.13;28.51
11712;BME280;5912;51.034;6.984;2023-04-06T12:34:04;56129.97;;;-142.13;28.55
11712;BME280;5912;51.034;6.984;2023-04-06T12:36:29;56111.94;;;-142.13;28.57
11712;BME280;5912;51.034;6.984;2023-04-06T12:38:55;56131.97;;;-142.13;28.53
11712;BME280;5912;51.034;6.984;2023-04-06T12:41:20;56133.97;;;-142.13;28.09
11712;BME280;5912;51.034;6.984;2023-04-06T12:43:46;56105.94;;;-142.13;27.14
11712;BME280;5912;51.034;6.984;2023-04-06T12:46:12;56123.97;;;-142.13;27.88
11712;BME280;5912;51.034;6.984;2023-04-06T12:48:37;56129.97;;;-142.13;28.56
11712;BME280;5912;51.034;6.984;2023-04-06T12:51:04;56111.94;;;-142.13;28.59
11712;BME280;5912;51.034;6.984;2023-04-06T12:53:31;56123.97;;;-142.13;28.98
11712;BME280;5912;51.034;6.984;2023-04-06T12:55:57;56137.97;;;-142.13;28.52
11712;BME280;5912;51.034;6.984;2023-04-06T12:58:23;56121.97;;;-142.13;28.61
11712;BME280;5912;51.034;6.984;2023-04-06T13:00:49;56137.97;;;-142.13;28.27
11712;BME280;5912;51.034;6.984;2023-04-06T13:03:18;56099.94;;;-142.13;28.31
11712;BME280;5912;51.034;6.984;2023-04-06T13:05:47;56127.97;;;-142.13;28.95
11712;BME280;5912;51.034;6.984;2023-04-06T13:08:13;56146.00;;;-142.13;28.93
11712;BME280;5912;51.034;6.984;2023-04-06T13:10:46;56140.00;;;-142.13;28.75
11712;BME280;5912;51.034;6.984;2023-04-06T13:13:13;56140.00;;;-142.13;28.62
11712;BME280;5912;51.034;6.984;2023-04-06T13:15:39;56164.03;;;-142.13;28.75
11712;BME280;5912;51.034;6.984;2023-04-06T13:18:04;56146.00;;;-142.13;29.46
11712;BME280;5912;51.034;6.984;2023-04-06T13:20:30;56137.97;;;-142.13;28.84
11712;BME280;5912;51.034;6.984;2023-04-06T13:22:55;56146.00;;;-142.13;29.42
11712;BME280;5912;51.034;6.984;2023-04-06T13:25:20;56150.00;;;-142.13;29.27
11712;BME280;5912;51.034;6.984;2023-04-06T13:27:46;56129.97;;;-142.13;29.56
11712;BME280;5912;51.034;6.984;2023-04-06T13:30:13;56142.00;;;-142.13;29.84
11712;BME280;5912;51.034;6.984;2023-04-06T13:32:38;56133.97;;;-142.13;29.73
11712;BME280;5912;51.034;6.984;2023-04-06T13:35:04;56176.03;;;-142.13;30.41
11712;BME280;5912;51.034;6.984;2023-04-06T13:37:30;56172.03;;;-142.13;30.58
11712;BME280;5912;51.034;6.984;2023-04-06T13:39:55;56192.06;;;-142.13;30.99
11712;BME280;5912;51.034;6.984;2023-04-06T13:42:20;56180.06;;;-142.13;31.56
11712;BME280;5912;51.034;6.984;2023-04-06T13:44:45;56162.03;;;-142.13;30.95
11712;BME280;5912;51.034;6.984;2023-04-06T13:47:12;56192.06;;;-142.13;31.38
11712;BME280;5912;51.034;6.984;2023-04-06T13:49:37;56186.06;;;-142.13;31.53
11712;BME280;5912;51.034;6.984;2023-04-06T13:52:03;56232.13;;;-142.13;31.60
11712;BME280;5912;51.034;6.984;2023-04-06T13:54:28;56214.09;;;-142.13;31.98
11712;BME280;5912;51.034;6.984;2023-04-06T13:56:53;56230.13;;;-142.13;32.85
11712;BME280;5912;51.034;6.984;2023-04-06T13:59:18;56224.13;;;-142.13;32.80
11712;BME280;5912;51.034;6.984;2023-04-06T14:01:44;56246.16;;;-142.13;32.68
11712;BME280;5912;51.034;6.984;2023-04-06T14:04:10;56254.16;;;-142.13;33.40
11712;BME280;5912;51.034;6.984;2023-04-06T14:06:36;56240.16;;;-142.13;33.37
11712;BME280;5912;51.034;6.984;2023-04-06T14:09:02;56242.16;;;-142.13;34.13
11712;BME280;5912;51.034;6.984;2023-04-06T14:11:27;56268.19;;;-142.13;34.68
11712;BME280;5912;51.034;6.984;2023-04-06T14:13:53;56292.22;;;-142.13;34.68
11712;BME280;5912;51.034;6.984;2023-04-06T14:16:18;56288.22;;;-142.13;35.06
11712;BME280;5912;51.034;6.984;2023-04-06T14:18:44;56302.25;;;-142.13;35.51
11712;BME280;5912;51.034;6.984;2023-04-06T14:21:10;56272.19;;;-142.13;35.86
11712;BME280;5912;51.034;6.984;2023-04-06T14:23:37;56312.25;;;-142.13;35.90
11712;BME280;5912;51.034;6.984;2023-04-06T14:26:08;56330.28;;;-142.13;36.54
11712;BME280;5912;51.034;6.984;2023-04-06T14:28:34;56318.25;;;-142.13;36.76
11712;BME280;5912;51.034;6.984;2023-04-06T14:31:02;56310.25;;;-142.13;36.88
11712;BME280;5912;51.034;6.984;2023-04-06T14:33:34;56332.28;;;-142.13;37.38
11712;BME280;5912;51.034;6.984;2023-04-06T14:36:02;56300.25;;;-142.13;37.97
11712;BME280;5912;51.034;6.984;2023-04-06T14:38:27;56304.25;;;-142.13;37.95
11712;BME280;5912;51.034;6.984;2023-04-06T14:40:53;56300.25;;;-142.13;38.08
11712;BME280;5912;51.034;6.984;2023-04-06T14:43:19;56300.25;;;-142.13;37.88
11712;BME280;5912;51.034;6.984;2023-04-06T14:45:44;56304.25;;;-142.13;37.84
11712;BME280;5912;51.034;6.984;2023-04-06T14:48:09;56322.28;;;-142.13;38.24
11712;BME280;5912;51.034;6.984;2023-04-06T14:50:38;56328.28;;;-142.13;38.79
11712;BME280;5912;51.034;6.984;2023-04-06T14:53:03;56320.28;;;-142.13;39.77
11712;BME280;5912;51.034;6.984;2023-04-06T14:55:28;56332.28;;;-142.13;40.40
11712;BME280;5912;51.034;6.984;2023-04-06T14:57:54;56352.31;;;-142.13;40.59
11712;BME280;5912;51.034;6.984;2023-04-06T15:00:19;56326.28;;;-142.13;41.38
11712;BME280;5912;51.034;6.984;2023-04-06T15:02:45;56326.28;;;-142.13;42.00
11712;BME280;5912;51.034;6.984;2023-04-06T15:05:10;56332.28;;;-142.13;42.71
11712;BME280;5912;51.034;6.984;2023-04-06T15:07:36;56344.31;;;-142.13;42.87
11712;BME280;5912;51.034;6.984;2023-04-06T15:10:01;56328.28;;;-142.13;42.46
11712;BME280;5912;51.034;6.984;2023-04-06T15:12:27;56418.44;;;-142.13;43.38
11712;BME280;5912;51.034;6.984;2023-04-06T15:14:54;56372.34;;;-142.13;44.33
11712;BME280;5912;51.034;6.984;2023-04-06T15:17:19;56332.28;;;-142.13;45.15
11712;BME280;5912;51.034;6.984;2023-04-06T15:19:45;56344.31;;;-142.13;45.48
11712;BME280;5912;51.034;6.984;2023-04-06T15:22:10;56382.38;;;-142.13;46.39
11712;BME280;5912;51.034;6.984;2023-04-06T15:24:36;56334.28;;;-142.13;46.66
11712;BME280;5912;51.034;6.984;2023-04-06T15:27:01;56378.38;;;-142.13;47.39
11712;BME280;5912;51.034;6.984;2023-04-06T15:29:27;56368.34;;;-142.13;48.15
11712;BME280;5912;51.034;6.984;2023-04-06T15:31:52;56372.34;;;-142.13;48.40
11712;BME280;5912;51.034;6.984;2023-04-06T15:34:18;56360.34;;;-142.13;49.39
11712;BME280;5912;51.034;6.984;2023-04-06T15:36:43;56370.34;;;-142.13;49.88
11712;BME280;5912;51.034;6.984;2023-04-06T15:39:10;56348.31;;;-142.13;50.94
11712;BME280;5912;51.034;6.984;2023-04-06T15:41:36;56376.34;;;-142.13;51.35
11712;BME280;5912;51.034;6.984;2023-04-06T15:44:01;56358.34;;;-142.13;51.89
11712;BME280;5912;51.034;6.984;2023-04-06T15:46:26;56372.34;;;-142.13;52.35
11712;BME280;5912;51.034;6.984;2023-04-06T15:48:52;56376.34;;;-142.13;52.72
11712;BME280;5912;51.034;6.984;2023-04-06T15:51:17;56336.28;;;-142.13;53.28
11712;BME280;5912;51.034;6.984;2023-04-06T15:53:43;56376.34;;;-142.13;54.49
11712;BME280;5912;51.034;6.984;2023-04-06T15:56:08;56402.41;;;-142.13;52.80
11712;BME280;5912;51.034;6.984;2023-04-06T15:58:35;56380.38;;;-142.13;54.34
11712;BME280;5912;51.034;6.984;2023-04-06T16:01:09;56388.38;;;-142.13;56.00
11712;BME280;5912;51.034;6.984;2023-04-06T16:03:34;56392.38;;;-142.13;56.43
11712;BME280;5912;51.034;6.984;2023-04-06T16:06:00;56402.41;;;-142.13;57.16
11712;BME280;5912;51.034;6.984;2023-04-06T16:08:25;56406.41;;;-142.13;57.00
11712;BME280;5912;51.034;6.984;2023-04-06T16:10:50;56384.38;;;-142.13;57.65
11712;BME280;5912;51.034;6.984;2023-04-06T16:13:16;56406.41;;;-142.13;57.72
11712;BME280;5912;51.034;6.984;2023-04-06T16:15:41;56418.44;;;-142.13;58.52
11712;BME280;5912;51.034;6.984;2023-04-06T16:18:07;56396.41;;;-142.13;58.87
11712;BME280;5912;51.034;6.984;2023-04-06T16:20:34;56392.38;;;-142.13;59.69
11712;BME280;5912;51.034;6.984;2023-04-06T16:22:59;56394.38;;;-142.13;60.19
11712;BME280;5912;51.034;6.984;2023-04-06T16:25:24;56400.41;;;-142.13;60.75
11712;BME280;5912;51.034;6.984;2023-04-06T16:27:50;56420.44;;;-142.13;60.99
11712;BME280;5912;51.034;6.984;2023-04-06T16:30:16;56396.41;;;-142.13;61.46
11712;BME280;5912;51.034;6.984;2023-04-06T16:32:41;56426.44;;;-142.13;60.99
11712;BME280;5912;51.034;6.984;2023-04-06T16:35:07;56388.38;;;-142.13;61.40
11712;BME280;5912;51.034;6.984;2023-04-06T16:37:33;56444.47;;;-142.13;61.70
11712;BME280;5912;51.034;6.984;2023-04-06T16:39:59;56422.44;;;-142.13;62.19
11712;BME280;5912;51.034;6.984;2023-04-06T16:42:25;56392.38;;;-142.13;62.68
11712;BME280;5912;51.034;6.984;2023-04-06T16:45:16;56412.41;;;-142.13;63.52
11712;BME280;5912;51.034;6.984;2023-04-06T16:47:41;56420.44;;;-142.13;64.43
11712;BME280;5912;51.034;6.984;2023-04-06T16:50:07;56412.41;;;-142.13;65.38
11712;BME280;5912;51.034;6.984;2023-04-06T16:52:33;56432.44;;;-142.13;65.57
11712;BME280;5912;51.034;6.984;2023-04-06T16:54:58;56412.41;;;-142.13;66.15
11712;BME280;5912;51.034;6.984;2023-04-06T16:57:24;56434.44;;;-142.13;66.47
11712;BME280;5912;51.034;6.984;2023-04-06T16:59:54;56440.47;;;-142.13;65.81
11712;BME280;5912;51.034;6.984;2023-04-06T17:02:20;56408.41;;;-142.13;66.36
11712;BME280;5912;51.034;6.984;2023-04-06T17:04:45;56430.44;;;-142.13;67.11
11712;BME280;5912;51.034;6.984;2023-04-06T17:07:10;56438.47;;;-142.13;67.92
11712;BME280;5912;51.034;6.984;2023-04-06T17:09:36;56440.47;;;-142.13;68.04
11712;BME280;5912;51.034;6.984;2023-04-06T17:12:01;56452.47;;;-142.13;68.47
11712;BME280;5912;51.034;6.984;2023-04-06T17:14:39;56450.47;;;-142.13;68.94
11712;BME280;5912;51.034;6.984;2023-04-06T17:17:04;56430.44;;;-142.13;69.10
11712;BME280;5912;51.034;6.984;2023-04-06T17:19:30;56446.47;;;-142.13;68.98
11712;BME280;5912;51.034;6.984;2023-04-06T17:21:56;56450.47;;;-142.13;69.03
11712;BME280;5912;51.034;6.984;2023-04-06T17:24:21;56440.47;;;-142.13;69.68
11712;BME280;5912;51.034;6.984;2023-04-06T17:26:46;56436.47;;;-142.13;70.12
11712;BME280;5912;51.034;6.984;2023-04-06T17:29:11;56444.47;;;-142.13;70.09
11712;BME280;5912;51.034;6.984;2023-04-06T17:31:37;56460.50;;;-142.13;70.33
11712;BME280;5912;51.034;6.984;2023-04-06T17:34:02;56440.47;;;-142.13;70.39
11712;BME280;5912;51.034;6.984;2023-04-06T17:36:27;56460.50;;;-142.13;70.46
11712;BME280;5912;51.034;6.984;2023-04-06T17:38:53;56452.47;;;-142.13;70.67
11712;BME280;5912;51.034;6.984;2023-04-06T17:41:19;56432.44;;;-142.13;70.69
11712;BME280;5912;51.034;6.984;2023-04-06T17:43:45;56460.50;;;-142.13;70.88
11712;BME280;5912;51.034;6.984;2023-04-06T17:46:12;56418.44;;;-142.13;71.55
11712;BME280;5912;51.034;6.984;2023-04-06T17:48:37;56444.47;;;-142.13;71.37
11712;BME280;5912;51.034;6.984;2023-04-06T17:51:02;56472.50;;;-142.13;71.42
11712;BME280;5912;51.034;6.984;2023-04-06T17:53:28;56456.50;;;-142.13;71.56
11712;BME280;5912;51.034;6.984;2023-04-06T17:55:56;56464.50;;;-142.13;72.12
11712;BME280;5912;51.034;6.984;2023-04-06T17:58:22;56460.50;;;-142.13;72.19
11712;BME280;5912;51.034;6.984;2023-04-06T18:00:47;56470.50;;;-142.13;71.68
11712;BME280;5912;51.034;6.984;2023-04-06T18:03:12;56444.47;;;-142.13;72.21
11712;BME280;5912;51.034;6.984;2023-04-06T18:08:34;56454.47;;;-142.13;72.15
11712;BME280;5912;51.034;6.984;2023-04-06T18:10:59;56446.47;;;-142.13;71.67
11712;BME280;5912;51.034;6.984;2023-04-06T18:13:27;56456.50;;;-142.13;71.89
11712;BME280;5912;51.034;6.984;2023-04-06T18:15:52;56432.44;;;-142.13;72.15
11712;BME280;5912;51.034;6.984;2023-04-06T18:18:18;56494.56;;;-142.13;72.15
11712;BME280;5912;51.034;6.984;2023-04-06T18:20:43;56490.53;;;-142.13;72.04
11712;BME280;5912;51.034;6.984;2023-04-06T18:23:08;56464.50;;;-142.13;72.24
11712;BME280;5912;51.034;6.984;2023-04-06T18:25:40;56456.50;;;-142.13;72.34
11712;BME280;5912;51.034;6.984;2023-04-06T18:28:07;56462.50;;;-142.13;72.79
11712;BME280;5912;51.034;6.984;2023-04-06T18:30:33;56456.50;;;-142.13;72.77
11712;BME280;5912;51.034;6.984;2023-04-06T18:32:58;56466.50;;;-142.13;72.87
11712;BME280;5912;51.034;6.984;2023-04-06T18:35:24;56468.50;;;-142.13;72.91
11712;BME280;5912;51.034;6.984;2023-04-06T18:37:50;56464.50;;;-142.13;73.15
11712;BME280;5912;51.034;6.984;2023-04-06T18:40:36;56472.50;;;-142.13;73.28
11712;BME280;5912;51.034;6.984;2023-04-06T18:43:03;56472.50;;;-142.13;72.91
11712;BME280;5912;51.034;6.984;2023-04-06T18:45:31;56456.50;;;-142.13;73.38
11712;BME280;5912;51.034;6.984;2023-04-06T18:47:57;56492.53;;;-142.13;73.46
11712;BME280;5912;51.034;6.984;2023-04-06T18:50:22;56454.47;;;-142.13;73.54
11712;BME280;5912;51.034;6.984;2023-04-06T18:52:48;56452.47;;;-142.13;73.78
11712;BME280;5912;51.034;6.984;2023-04-06T18:55:13;56464.50;;;-142.13;73.62
11712;BME280;5912;51.034;6.984;2023-04-06T18:57:38;56444.47;;;-142.13;73.93
11712;BME280;5912;51.034;6.984;2023-04-06T19:00:04;56472.50;;;-142.13;73.66
11712;BME280;5912;51.034;6.984;2023-04-06T19:02:29;56478.53;;;-142.13;73.68
11712;BME280;5912;51.034;6.984;2023-04-06T19:04:55;56466.50;;;-142.13;73.54
11712;BME280;5912;51.034;6.984;2023-04-06T19:07:20;56464.50;;;-142.13;74.06
11712;BME280;5912;51.034;6.984;2023-04-06T19:09:46;56438.47;;;-142.13;73.98
11712;BME280;5912;51.034;6.984;2023-04-06T19:12:11;56472.50;;;-142.13;74.53
11712;BME280;5912;51.034;6.984;2023-04-06T19:14:37;56464.50;;;-142.13;74.32
11712;BME280;5912;51.034;6.984;2023-04-06T19:17:02;56480.53;;;-142.13;74.67
11712;BME280;5912;51.034;6.984;2023-04-06T19:19:27;56472.50;;;-142.13;74.67
11712;BME280;5912;51.034;6.984;2023-04-06T19:21:53;56478.53;;;-142.13;74.65
11712;BME280;5912;51.034;6.984;2023-04-06T19:24:19;56462.50;;;-142.13;74.81
11712;BME280;5912;51.034;6.984;2023-04-06T19:26:44;56458.50;;;-142.13;75.02
11712;BME280;5912;51.034;6.984;2023-04-06T19:29:10;56488.53;;;-142.13;74.95
11712;BME280;5912;51.034;6.984;2023-04-06T19:31:35;56508.56;;;-142.13;74.79
11712;BME280;5912;51.034;6.984;2023-04-06T19:34:01;56456.50;;;-142.13;75.00
11712;BME280;5912;51.034;6.984;2023-04-06T19:36:26;56486.53;;;-142.13;75.23
11712;BME280;5912;51.034;6.984;2023-04-06T19:38:53;56464.50;;;-142.13;75.34
11712;BME280;5912;51.034;6.984;2023-04-06T19:41:18;56462.50;;;-142.13;75.27
11712;BME280;5912;51.034;6.984;2023-04-06T19:43:45;56482.53;;;-142.13;75.42
11712;BME280;5912;51.034;6.984;2023-04-06T19:46:10;56446.47;;;-142.13;75.26
11712;BME280;5912;51.034;6.984;2023-04-06T19:48:36;56480.53;;;-142.13;75.15
11712;BME280;5912;51.034;6.984;2023-04-06T19:51:01;56466.50;;;-142.13;75.52
11712;BME280;5912;51.034;6.984;2023-04-06T19:53:26;56490.53;;;-142.13;75.42
11712;BME280;5912;51.034;6.984;2023-04-06T19:55:52;56450.47;;;-142.13;75.40
11712;BME280;5912;51.034;6.984;2023-04-06T19:58:17;56488.53;;;-142.13;75.21
11712;BME280;5912;51.034;6.984;2023-04-06T20:00:43;56480.53;;;-142.13;75.68
11712;BME280;5912;51.034;6.984;2023-04-06T20:03:09;56486.53;;;-142.13;75.26
11712;BME280;5912;51.034;6.984;2023-04-06T20:05:34;56478.53;;;-142.13;75.34
11712;BME280;5912;51.034;6.984;2023-04-06T20:08:00;56484.53;;;-142.13;75.04
11712;BME280;5912;51.034;6.984;2023-04-06T20:10:25;56484.53;;;-142.13;75.13
11712;BME280;5912;51.034;6.984;2023-04-06T20:12:50;56448.47;;;-142.13;75.58
11712;BME280;5912;51.034;6.984;2023-04-06T20:15:15;56468.50;;;-142.13;75.30
11712;BME280;5912;51.034;6.984;2023-04-06T20:17:41;56470.50;;;-142.13;75.69
11712;BME280;5912;51.034;6.984;2023-04-06T20:20:08;56456.50;;;-142.13;75.41
11712;BME280;5912;51.034;6.984;2023-04-06T20:22:34;56458.50;;;-142.13;75.20
11712;BME280;5912;51.034;6.984;2023-04-06T20:25:01;56480.53;;;-142.13;75.41
11712;BME280;5912;51.034;6.984;2023-04-06T20:27:26;56488.53;;;-142.13;75.20
11712;BME280;5912;51.034;6.984;2023-04-06T20:29:52;56436.47;;;-142.13;75.37
11712;BME280;5912;51.034;6.984;2023-04-06T20:32:17;56492.53;;;-142.13;75.35
11712;BME280;5912;51.034;6.984;2023-04-06T20:34:47;56664.84;;;-142.13;74.67
11712;BME280;5912;51.034;6.984;2023-04-06T20:37:13;56448.47;;;-142.13;74.76
11712;BME280;5912;51.034;6.984;2023-04-06T20:39:38;56456.50;;;-142.13;74.84
11712;BME280;5912;51.034;6.984;2023-04-06T20:42:04;56488.53;;;-142.13;74.76
11712;BME280;5912;51.034;6.984;2023-04-06T20:44:29;56466.50;;;-142.13;74.66
11712;BME280;5912;51.034;6.984;2023-04-06T20:46:55;56500.56;;;-142.13;75.08
11712;BME280;5912;51.034;6.984;2023-04-06T20:49:20;56448.47;;;-142.13;75.02
11712;BME280;5912;51.034;6.984;2023-04-06T20:51:51;56460.50;;;-142.13;74.87
11712;BME280;5912;51.034;6.984;2023-04-06T20:54:16;56508.56;;;-142.13;74.69
11712;BME280;5912;51.034;6.984;2023-04-06T20:56:42;56468.50;;;-142.13;74.68
11712;BME280;5912;51.034;6.984;2023-04-06T20:59:08;56454.47;;;-142.13;74.60
11712;BME280;5912;51.034;6.984;2023-04-06T21:01:33;56484.53;;;-142.13;74.51
11712;BME280;5912;51.034;6.984;2023-04-06T21:03:58;56492.53;;;-142.13;74.97
11712;BME280;5912;51.034;6.984;2023-04-06T21:06:27;56484.53;;;-142.13;74.80
11712;BME280;5912;51.034;6.984;2023-04-06T21:08:53;56446.47;;;-142.13;74.62
11712;BME280;5912;51.034;6.984;2023-04-06T21:11:19;56484.53;;;-142.13;74.54
11712;BME280;5912;51.034;6.984;2023-04-06T21:13:44;56520.59;;;-142.13;74.92
11712;BME280;5912;51.034;6.984;2023-04-06T21:16:10;56458.50;;;-142.13;74.94
11712;BME280;5912;51.034;6.984;2023-04-06T21:18:37;56480.53;;;-142.13;74.57
11712;BME280;5912;51.034;6.984;2023-04-06T21:21:03;56456.50;;;-142.13;74.85